sensor_id;sensor_type;location;lat;lon;timestamp;temperature;humidity
47757;SHT35;22147;52.388;13.390;2022-11-23T00:02:10;0.36;95.15
47757;SHT35;22147;52.388;13.390;2022-11-23T00:04:40;0.40;95.20
47757;SHT35;22147;52.388;13.390;2022-11-23T00:07:10;0.45;95.23
47757;SHT35;22147;52.388;13.390;2022-11-23T00:09:40;0.43;95.23
47757;SHT35;22147;52.388;13.390;2022-11-23T00:12:12;0.55;95.32
47757;SHT35;22147;52.388;13.390;2022-11-23T00:14:44;0.60;95.31
47757;SHT35;22147;52.388;13.390;2022-11-23T00:17:14;0.51;95.20
47757;SHT35;22147;52.388;13.390;2022-11-23T00:19:44;0.47;95.21
47757;SHT35;22147;52.388;13.390;2022-11-23T00:22:14;0.50;95.23
47757;SHT35;22147;52.388;13.390;2022-11-23T00:24:44;0.47;95.21
47757;SHT35;22147;52.388;13.390;2022-11-23T00:27:14;0.48;95.27
47757;SHT35;22147;52.388;13.390;2022-11-23T00:29:44;0.55;95.37
47757;SHT35;22147;52.388;13.390;2022-11-23T00:32:14;0.51;95.31
47757;SHT35;22147;52.388;13.390;2022-11-23T00:34:45;0.51;95.36
47757;SHT35;22147;52.388;13.390;2022-11-23T00:37:15;0.50;95.34
47757;SHT35;22147;52.388;13.390;2022-11-23T00:39:45;0.44;95.38
47757;SHT35;22147;52.388;13.390;2022-11-23T00:42:15;0.41;95.40
47757;SHT35;22147;52.388;13.390;2022-11-23T00:44:45;0.58;95.55
47757;SHT35;22147;52.388;13.390;2022-11-23T00:47:15;0.50;95.48
47757;SHT35;22147;52.388;13.390;2022-11-23T00:49:45;0.45;95.49
47757;SHT35;22147;52.388;13.390;2022-11-23T00:52:15;0.44;95.52
47757;SHT35;22147;52.388;13.390;2022-11-23T00:54:45;0.44;95.52
47757;SHT35;22147;52.388;13.390;2022-11-23T00:57:15;0.43;95.49
47757;SHT35;22147;52.388;13.390;2022-11-23T00:59:45;0.40;95.49
47757;SHT35;22147;52.388;13.390;2022-11-23T01:02:15;0.43;95.56
47757;SHT35;22147;52.388;13.390;2022-11-23T01:04:45;0.40;95.53
47757;SHT35;22147;52.388;13.390;2022-11-23T01:07:15;0.41;95.57
47757;SHT35;22147;52.388;13.390;2022-11-23T01:09:45;0.44;95.53
47757;SHT35;22147;52.388;13.390;2022-11-23T01:12:15;0.37;95.54
47757;SHT35;22147;52.388;13.390;2022-11-23T01:14:46;0.38;95.59
47757;SHT35;22147;52.388;13.390;2022-11-23T01:17:16;0.40;95.62
47757;SHT35;22147;52.388;13.390;2022-11-23T01:19:46;0.43;95.64
47757;SHT35;22147;52.388;13.390;2022-11-23T01:22:16;0.53;95.67
47757;SHT35;22147;52.388;13.390;2022-11-23T01:24:46;0.55;95.67
47757;SHT35;22147;52.388;13.390;2022-11-23T01:27:16;0.58;95.67
47757;SHT35;22147;52.388;13.390;2022-11-23T01:29:46;0.64;95.69
47757;SHT35;22147;52.388;13.390;2022-11-23T01:32:16;0.61;95.67
47757;SHT35;22147;52.388;13.390;2022-11-23T01:34:46;0.72;95.72
47757;SHT35;22147;52.388;13.390;2022-11-23T01:37:16;0.72;95.65
47757;SHT35;22147;52.388;13.390;2022-11-23T01:39:47;0.69;95.63
47757;SHT35;22147;52.388;13.390;2022-11-23T01:42:17;0.82;95.68
47757;SHT35;22147;52.388;13.390;2022-11-23T01:44:49;0.81;95.66
47757;SHT35;22147;52.388;13.390;2022-11-23T01:47:20;0.85;95.66
47757;SHT35;22147;52.388;13.390;2022-11-23T01:49:52;0.96;95.60
47757;SHT35;22147;52.388;13.390;2022-11-23T01:52:25;0.95;95.49
47757;SHT35;22147;52.388;13.390;2022-11-23T01:54:58;0.91;95.42
47757;SHT35;22147;52.388;13.390;2022-11-23T01:57:43;0.89;95.40
47757;SHT35;22147;52.388;13.390;2022-11-23T02:00:11;0.89;95.41
47757;SHT35;22147;52.388;13.390;2022-11-23T02:02:55;0.89;95.46
47757;SHT35;22147;52.388;13.390;2022-11-23T02:05:41;0.96;95.55
47757;SHT35;22147;52.388;13.390;2022-11-23T02:08:17;1.02;95.54
47757;SHT35;22147;52.388;13.390;2022-11-23T02:10:48;0.99;95.49
47757;SHT35;22147;52.388;13.390;2022-11-23T02:13:19;1.06;95.51
47757;SHT35;22147;52.388;13.390;2022-11-23T02:15:51;1.02;95.50
47757;SHT35;22147;52.388;13.390;2022-11-23T02:18:30;1.00;95.42
47757;SHT35;22147;52.388;13.390;2022-11-23T02:21:03;1.11;95.49
47757;SHT35;22147;52.388;13.390;2022-11-23T02:24:13;1.05;95.36
47757;SHT35;22147;52.388;13.390;2022-11-23T02:26:49;1.03;95.34
47757;SHT35;22147;52.388;13.390;2022-11-23T02:29:28;1.03;95.35
47757;SHT35;22147;52.388;13.390;2022-11-23T02:31:58;1.24;95.37
47757;SHT35;22147;52.388;13.390;2022-11-23T02:34:28;1.15;95.14
47757;SHT35;22147;52.388;13.390;2022-11-23T02:36:59;1.12;95.11
47757;SHT35;22147;52.388;13.390;2022-11-23T02:39:39;1.02;95.00
47757;SHT35;22147;52.388;13.390;2022-11-23T02:42:12;1.07;95.05
47757;SHT35;22147;52.388;13.390;2022-11-23T02:45:38;1.12;95.05
47757;SHT35;22147;52.388;13.390;2022-11-23T02:48:09;1.09;95.03
47757;SHT35;22147;52.388;13.390;2022-11-23T02:50:39;1.02;94.90
47757;SHT35;22147;52.388;13.390;2022-11-23T02:53:10;0.96;94.91
47757;SHT35;22147;52.388;13.390;2022-11-23T02:55:40;0.89;94.90
47757;SHT35;22147;52.388;13.390;2022-11-23T02:58:10;0.84;94.86
47757;SHT35;22147;52.388;13.390;2022-11-23T03:00:40;0.86;94.91
47757;SHT35;22147;52.388;13.390;2022-11-23T03:03:10;0.79;94.89
47757;SHT35;22147;52.388;13.390;2022-11-23T03:05:39;0.72;94.91
47757;SHT35;22147;52.388;13.390;2022-11-23T03:08:08;0.72;94.94
47757;SHT35;22147;52.388;13.390;2022-11-23T03:10:37;0.72;94.88
47757;SHT35;22147;52.388;13.390;2022-11-23T03:13:06;0.68;94.94
47757;SHT35;22147;52.388;13.390;2022-11-23T03:15:34;0.64;94.91
47757;SHT35;22147;52.388;13.390;2022-11-23T03:18:03;0.62;94.94
47757;SHT35;22147;52.388;13.390;2022-11-23T03:20:31;0.61;94.94
47757;SHT35;22147;52.388;13.390;2022-11-23T03:23:00;0.62;95.06
47757;SHT35;22147;52.388;13.390;2022-11-23T03:25:28;0.58;95.05
47757;SHT35;22147;52.388;13.390;2022-11-23T03:27:57;0.58;95.05
47757;SHT35;22147;52.388;13.390;2022-11-23T03:30:26;0.55;95.05
47757;SHT35;22147;52.388;13.390;2022-11-23T03:32:54;0.53;95.05
47757;SHT35;22147;52.388;13.390;2022-11-23T03:35:23;0.51;95.03
47757;SHT35;22147;52.388;13.390;2022-11-23T03:37:53;0.57;95.14
47757;SHT35;22147;52.388;13.390;2022-11-23T03:40:21;0.54;95.09
47757;SHT35;22147;52.388;13.390;2022-11-23T03:42:50;0.54;95.10
47757;SHT35;22147;52.388;13.390;2022-11-23T03:45:18;0.47;95.05
47757;SHT35;22147;52.388;13.390;2022-11-23T03:47:47;0.47;95.10
47757;SHT35;22147;52.388;13.390;2022-11-23T03:50:16;0.45;95.11
47757;SHT35;22147;52.388;13.390;2022-11-23T03:52:48;0.41;95.13
47757;SHT35;22147;52.388;13.390;2022-11-23T03:55:17;0.41;95.13
47757;SHT35;22147;52.388;13.390;2022-11-23T03:57:48;0.37;95.15
47757;SHT35;22147;52.388;13.390;2022-11-23T04:00:17;0.37;95.23
47757;SHT35;22147;52.388;13.390;2022-11-23T04:02:46;0.40;95.28
47757;SHT35;22147;52.388;13.390;2022-11-23T04:05:14;0.40;95.30
47757;SHT35;22147;52.388;13.390;2022-11-23T04:07:46;0.47;95.40
47757;SHT35;22147;52.388;13.390;2022-11-23T04:10:18;0.45;95.33
47757;SHT35;22147;52.388;13.390;2022-11-23T04:12:52;0.38;95.32
47757;SHT35;22147;52.388;13.390;2022-11-23T04:15:22;0.40;95.31
47757;SHT35;22147;52.388;13.390;2022-11-23T04:17:54;0.41;95.32
47757;SHT35;22147;52.388;13.390;2022-11-23T04:20:24;0.40;95.33
47757;SHT35;22147;52.388;13.390;2022-11-23T04:22:54;0.43;95.36
47757;SHT35;22147;52.388;13.390;2022-11-23T04:25:24;0.43;95.32
47757;SHT35;22147;52.388;13.390;2022-11-23T04:27:54;0.38;95.28
47757;SHT35;22147;52.388;13.390;2022-11-23T04:30:25;0.31;95.27
47757;SHT35;22147;52.388;13.390;2022-11-23T04:32:55;0.38;95.36
47757;SHT35;22147;52.388;13.390;2022-11-23T04:35:25;0.43;95.35
47757;SHT35;22147;52.388;13.390;2022-11-23T04:37:55;0.36;95.30
47757;SHT35;22147;52.388;13.390;2022-11-23T04:40:25;0.45;95.43
47757;SHT35;22147;52.388;13.390;2022-11-23T04:42:56;0.40;95.25
47757;SHT35;22147;52.388;13.390;2022-11-23T04:45:30;0.34;95.26
47757;SHT35;22147;52.388;13.390;2022-11-23T04:48:00;0.54;95.37
47757;SHT35;22147;52.388;13.390;2022-11-23T04:50:30;0.60;95.32
47757;SHT35;22147;52.388;13.390;2022-11-23T04:53:00;0.60;95.01
47757;SHT35;22147;52.388;13.390;2022-11-23T04:55:31;0.54;94.94
47757;SHT35;22147;52.388;13.390;2022-11-23T04:58:01;0.47;94.87
47757;SHT35;22147;52.388;13.390;2022-11-23T05:00:31;0.43;94.89
47757;SHT35;22147;52.388;13.390;2022-11-23T05:03:01;0.38;94.94
47757;SHT35;22147;52.388;13.390;2022-11-23T05:05:31;0.43;95.05
47757;SHT35;22147;52.388;13.390;2022-11-23T05:08:01;0.54;95.14
47757;SHT35;22147;52.388;13.390;2022-11-23T05:10:32;0.44;95.06
47757;SHT35;22147;52.388;13.390;2022-11-23T05:13:00;0.44;95.08
47757;SHT35;22147;52.388;13.390;2022-11-23T05:15:28;0.47;95.13
47757;SHT35;22147;52.388;13.390;2022-11-23T05:18:05;0.54;95.25
47757;SHT35;22147;52.388;13.390;2022-11-23T05:20:37;0.66;95.15
47757;SHT35;22147;52.388;13.390;2022-11-23T05:23:08;0.62;95.10
47757;SHT35;22147;52.388;13.390;2022-11-23T05:25:39;0.62;95.08
47757;SHT35;22147;52.388;13.390;2022-11-23T05:28:17;0.71;95.05
47757;SHT35;22147;52.388;13.390;2022-11-23T05:31:09;0.74;95.01
47757;SHT35;22147;52.388;13.390;2022-11-23T05:33:38;0.74;95.01
47757;SHT35;22147;52.388;13.390;2022-11-23T05:36:09;0.82;95.03
47757;SHT35;22147;52.388;13.390;2022-11-23T05:38:43;0.81;94.90
47757;SHT35;22147;52.388;13.390;2022-11-23T05:41:12;0.78;94.81
47757;SHT35;22147;52.388;13.390;2022-11-23T05:43:42;0.72;94.78
47757;SHT35;22147;52.388;13.390;2022-11-23T05:46:12;0.74;94.84
47757;SHT35;22147;52.388;13.390;2022-11-23T05:48:42;0.68;94.87
47757;SHT35;22147;52.388;13.390;2022-11-23T05:51:12;0.64;94.83
47757;SHT35;22147;52.388;13.390;2022-11-23T05:53:41;0.68;94.92
47757;SHT35;22147;52.388;13.390;2022-11-23T05:56:11;0.61;94.86
47757;SHT35;22147;52.388;13.390;2022-11-23T05:58:41;0.54;94.82
47757;SHT35;22147;52.388;13.390;2022-11-23T06:01:11;0.45;94.80
47757;SHT35;22147;52.388;13.390;2022-11-23T06:03:41;0.44;94.88
47757;SHT35;22147;52.388;13.390;2022-11-23T06:06:11;0.44;94.91
47757;SHT35;22147;52.388;13.390;2022-11-23T06:08:40;0.43;94.94
47757;SHT35;22147;52.388;13.390;2022-11-23T06:11:16;0.51;95.02
47757;SHT35;22147;52.388;13.390;2022-11-23T06:13:48;0.53;94.98
47757;SHT35;22147;52.388;13.390;2022-11-23T06:16:17;0.40;94.87
47757;SHT35;22147;52.388;13.390;2022-11-23T06:18:47;0.34;94.89
47757;SHT35;22147;52.388;13.390;2022-11-23T06:21:17;0.31;94.90
47757;SHT35;22147;52.388;13.390;2022-11-23T06:23:48;0.26;94.89
47757;SHT35;22147;52.388;13.390;2022-11-23T06:26:17;0.21;94.93
47757;SHT35;22147;52.388;13.390;2022-11-23T06:28:47;0.16;94.97
47757;SHT35;22147;52.388;13.390;2022-11-23T06:31:18;0.16;94.95
47757;SHT35;22147;52.388;13.390;2022-11-23T06:33:47;0.10;95.03
47757;SHT35;22147;52.388;13.390;2022-11-23T06:36:17;0.03;95.03
47757;SHT35;22147;52.388;13.390;2022-11-23T06:38:47;0.00;95.04
47757;SHT35;22147;52.388;13.390;2022-11-23T06:41:17;-0.01;95.08
47757;SHT35;22147;52.388;13.390;2022-11-23T06:43:47;-0.01;95.12
47757;SHT35;22147;52.388;13.390;2022-11-23T06:46:17;-0.04;95.13
47757;SHT35;22147;52.388;13.390;2022-11-23T06:48:47;-0.04;95.15
47757;SHT35;22147;52.388;13.390;2022-11-23T06:51:17;0.02;95.20
47757;SHT35;22147;52.388;13.390;2022-11-23T06:53:47;-0.04;95.19
47757;SHT35;22147;52.388;13.390;2022-11-23T06:56:17;-0.07;95.18
47757;SHT35;22147;52.388;13.390;2022-11-23T06:58:47;-0.10;95.22
47757;SHT35;22147;52.388;13.390;2022-11-23T07:01:16;-0.12;95.20
47757;SHT35;22147;52.388;13.390;2022-11-23T07:03:46;-0.15;95.21
47757;SHT35;22147;52.388;13.390;2022-11-23T07:06:16;-0.12;95.24
47757;SHT35;22147;52.388;13.390;2022-11-23T07:08:46;-0.11;95.23
47757;SHT35;22147;52.388;13.390;2022-11-23T07:11:16;-0.05;95.30
47757;SHT35;22147;52.388;13.390;2022-11-23T07:13:46;-0.03;95.31
47757;SHT35;22147;52.388;13.390;2022-11-23T07:16:14;-0.01;95.29
47757;SHT35;22147;52.388;13.390;2022-11-23T07:18:42;-0.01;95.32
47757;SHT35;22147;52.388;13.390;2022-11-23T07:21:11;0.03;95.33
47757;SHT35;22147;52.388;13.390;2022-11-23T07:23:39;-0.03;95.28
47757;SHT35;22147;52.388;13.390;2022-11-23T07:26:08;-0.03;95.29
47757;SHT35;22147;52.388;13.390;2022-11-23T07:28:37;0.05;95.33
47757;SHT35;22147;52.388;13.390;2022-11-23T07:31:05;0.07;95.36
47757;SHT35;22147;52.388;13.390;2022-11-23T07:33:34;0.09;95.34
47757;SHT35;22147;52.388;13.390;2022-11-23T07:36:03;0.09;95.31
47757;SHT35;22147;52.388;13.390;2022-11-23T07:38:31;0.06;95.30
47757;SHT35;22147;52.388;13.390;2022-11-23T07:40:59;0.10;95.33
47757;SHT35;22147;52.388;13.390;2022-11-23T07:43:29;0.14;95.37
47757;SHT35;22147;52.388;13.390;2022-11-23T07:45:57;0.18;95.39
47757;SHT35;22147;52.388;13.390;2022-11-23T07:48:25;0.30;95.48
47757;SHT35;22147;52.388;13.390;2022-11-23T07:51:01;0.38;95.47
47757;SHT35;22147;52.388;13.390;2022-11-23T07:53:29;0.53;95.56
47757;SHT35;22147;52.388;13.390;2022-11-23T07:55:57;0.66;95.48
47757;SHT35;22147;52.388;13.390;2022-11-23T07:58:27;0.76;95.42
47757;SHT35;22147;52.388;13.390;2022-11-23T08:00:58;0.76;95.23
47757;SHT35;22147;52.388;13.390;2022-11-23T08:03:28;0.84;95.20
47757;SHT35;22147;52.388;13.390;2022-11-23T08:05:59;0.97;95.21
47757;SHT35;22147;52.388;13.390;2022-11-23T08:08:29;1.03;95.08
47757;SHT35;22147;52.388;13.390;2022-11-23T08:10:59;1.15;95.00
47757;SHT35;22147;52.388;13.390;2022-11-23T08:13:29;1.16;94.74
47757;SHT35;22147;52.388;13.390;2022-11-23T08:16:01;1.19;94.56
47757;SHT35;22147;52.388;13.390;2022-11-23T08:18:29;1.24;94.42
47757;SHT35;22147;52.388;13.390;2022-11-23T08:21:01;1.43;94.15
47757;SHT35;22147;52.388;13.390;2022-11-23T08:23:29;1.39;93.63
47757;SHT35;22147;52.388;13.390;2022-11-23T08:25:57;1.39;93.47
47757;SHT35;22147;52.388;13.390;2022-11-23T08:28:25;1.48;93.41
47757;SHT35;22147;52.388;13.390;2022-11-23T08:30:54;1.54;93.15
47757;SHT35;22147;52.388;13.390;2022-11-23T08:33:22;1.54;93.04
47757;SHT35;22147;52.388;13.390;2022-11-23T08:35:49;1.58;93.07
47757;SHT35;22147;52.388;13.390;2022-11-23T08:38:19;1.70;92.92
47757;SHT35;22147;52.388;13.390;2022-11-23T08:40:49;1.81;92.80
47757;SHT35;22147;52.388;13.390;2022-11-23T08:43:18;1.90;92.60
47757;SHT35;22147;52.388;13.390;2022-11-23T08:45:48;1.94;92.39
47757;SHT35;22147;52.388;13.390;2022-11-23T08:48:18;2.01;92.20
47757;SHT35;22147;52.388;13.390;2022-11-23T08:50:48;2.12;92.10
47757;SHT35;22147;52.388;13.390;2022-11-23T08:53:18;2.26;92.04
47757;SHT35;22147;52.388;13.390;2022-11-23T08:55:47;2.46;92.07
47757;SHT35;22147;52.388;13.390;2022-11-23T08:58:17;2.56;91.60
47757;SHT35;22147;52.388;13.390;2022-11-23T09:00:47;2.56;91.18
47757;SHT35;22147;52.388;13.390;2022-11-23T09:03:17;2.60;90.90
47757;SHT35;22147;52.388;13.390;2022-11-23T09:05:47;2.57;90.69
47757;SHT35;22147;52.388;13.390;2022-11-23T09:08:17;2.57;90.60
47757;SHT35;22147;52.388;13.390;2022-11-23T09:10:46;2.57;90.53
47757;SHT35;22147;52.388;13.390;2022-11-23T09:13:16;2.62;90.43
47757;SHT35;22147;52.388;13.390;2022-11-23T09:15:46;2.69;90.52
47757;SHT35;22147;52.388;13.390;2022-11-23T09:18:16;2.74;90.39
47757;SHT35;22147;52.388;13.390;2022-11-23T09:20:46;2.77;90.36
47757;SHT35;22147;52.388;13.390;2022-11-23T09:23:16;2.87;90.32
47757;SHT35;22147;52.388;13.390;2022-11-23T09:25:45;2.99;90.42
47757;SHT35;22147;52.388;13.390;2022-11-23T09:28:19;3.25;90.42
47757;SHT35;22147;52.388;13.390;2022-11-23T09:30:49;3.20;89.51
47757;SHT35;22147;52.388;13.390;2022-11-23T09:33:20;3.47;88.52
47757;SHT35;22147;52.388;13.390;2022-11-23T09:36:02;3.44;88.24
47757;SHT35;22147;52.388;13.390;2022-11-23T09:38:30;3.62;87.97
47757;SHT35;22147;52.388;13.390;2022-11-23T09:50:47;3.95;87.70
47757;SHT35;22147;52.388;13.390;2022-11-23T09:53:39;4.31;87.17
47757;SHT35;22147;52.388;13.390;2022-11-23T09:56:22;4.55;86.30
47757;SHT35;22147;52.388;13.390;2022-11-23T09:59:01;4.65;85.99
47757;SHT35;22147;52.388;13.390;2022-11-23T10:01:32;4.91;85.66
47757;SHT35;22147;52.388;13.390;2022-11-23T10:04:04;5.25;85.27
47757;SHT35;22147;52.388;13.390;2022-11-23T10:06:42;5.67;83.72
47757;SHT35;22147;52.388;13.390;2022-11-23T10:10:12;5.97;82.10
47757;SHT35;22147;52.388;13.390;2022-11-23T10:13:33;6.21;82.66
47757;SHT35;22147;52.388;13.390;2022-11-23T10:16:48;6.69;81.15
47757;SHT35;22147;52.388;13.390;2022-11-23T10:20:31;6.67;79.75
47757;SHT35;22147;52.388;13.390;2022-11-23T10:26:20;6.85;80.69
47757;SHT35;22147;52.388;13.390;2022-11-23T10:28:57;7.23;79.00
47757;SHT35;22147;52.388;13.390;2022-11-23T10:31:33;7.31;78.55
47757;SHT35;22147;52.388;13.390;2022-11-23T10:34:25;7.47;78.15
47757;SHT35;22147;52.388;13.390;2022-11-23T10:37:02;7.34;77.82
47757;SHT35;22147;52.388;13.390;2022-11-23T10:39:36;7.58;76.92
47757;SHT35;22147;52.388;13.390;2022-11-23T10:42:35;7.59;78.50
47757;SHT35;22147;52.388;13.390;2022-11-23T10:45:26;7.57;76.57
47757;SHT35;22147;52.388;13.390;2022-11-23T10:47:58;7.48;77.47
47757;SHT35;22147;52.388;13.390;2022-11-23T10:50:35;7.50;78.36
47757;SHT35;22147;52.388;13.390;2022-11-23T10:53:22;7.50;77.48
47757;SHT35;22147;52.388;13.390;2022-11-23T10:55:59;7.32;78.14
47757;SHT35;22147;52.388;13.390;2022-11-23T10:58:39;7.26;78.19
47757;SHT35;22147;52.388;13.390;2022-11-23T11:01:21;7.10;78.84
47757;SHT35;22147;52.388;13.390;2022-11-23T11:04:00;6.71;80.18
47757;SHT35;22147;52.388;13.390;2022-11-23T11:06:33;6.64;80.44
47757;SHT35;22147;52.388;13.390;2022-11-23T11:09:19;6.46;80.66
47757;SHT35;22147;52.388;13.390;2022-11-23T11:11:51;6.28;81.43
47757;SHT35;22147;52.388;13.390;2022-11-23T11:14:23;6.38;81.67
47757;SHT35;22147;52.388;13.390;2022-11-23T11:16:56;6.31;81.70
47757;SHT35;22147;52.388;13.390;2022-11-23T11:19:33;6.18;82.42
47757;SHT35;22147;52.388;13.390;2022-11-23T11:22:34;6.28;82.02
47757;SHT35;22147;52.388;13.390;2022-11-23T11:25:29;6.28;82.63
47757;SHT35;22147;52.388;13.390;2022-11-23T11:28:03;6.28;82.05
47757;SHT35;22147;52.388;13.390;2022-11-23T11:34:21;6.32;82.13
47757;SHT35;22147;52.388;13.390;2022-11-23T11:37:16;6.44;82.08
47757;SHT35;22147;52.388;13.390;2022-11-23T11:45:52;6.58;81.02
47757;SHT35;22147;52.388;13.390;2022-11-23T11:48:55;6.35;82.04
47757;SHT35;22147;52.388;13.390;2022-11-23T11:52:03;6.22;82.90
47757;SHT35;22147;52.388;13.390;2022-11-23T11:57:34;6.40;82.74
47757;SHT35;22147;52.388;13.390;2022-11-23T12:00:14;6.46;82.57
47757;SHT35;22147;52.388;13.390;2022-11-23T12:03:34;6.53;82.37
47757;SHT35;22147;52.388;13.390;2022-11-23T12:06:42;6.51;82.41
47757;SHT35;22147;52.388;13.390;2022-11-23T12:09:29;6.46;82.73
47757;SHT35;22147;52.388;13.390;2022-11-23T12:12:14;6.65;82.39
47757;SHT35;22147;52.388;13.390;2022-11-23T12:14:46;6.68;82.24
47757;SHT35;22147;52.388;13.390;2022-11-23T12:17:49;6.69;82.08
47757;SHT35;22147;52.388;13.390;2022-11-23T12:40:17;6.96;81.88
47757;SHT35;22147;52.388;13.390;2022-11-23T12:43:12;6.89;81.99
47757;SHT35;22147;52.388;13.390;2022-11-23T12:46:13;6.83;82.40
47757;SHT35;22147;52.388;13.390;2022-11-23T12:49:22;6.83;82.65
47757;SHT35;22147;52.388;13.390;2022-11-23T12:56:41;7.03;82.50
47757;SHT35;22147;52.388;13.390;2022-11-23T12:59:09;7.09;82.18
47757;SHT35;22147;52.388;13.390;2022-11-23T13:01:58;7.31;81.54
47757;SHT35;22147;52.388;13.390;2022-11-23T13:07:59;7.40;81.30
47757;SHT35;22147;52.388;13.390;2022-11-23T13:17:51;7.57;80.69
47757;SHT35;22147;52.388;13.390;2022-11-23T13:23:39;7.58;80.49
47757;SHT35;22147;52.388;13.390;2022-11-23T13:26:18;7.59;80.62
47757;SHT35;22147;52.388;13.390;2022-11-23T13:28:55;7.48;80.90
47757;SHT35;22147;52.388;13.390;2022-11-23T13:31:32;7.51;80.91
47757;SHT35;22147;52.388;13.390;2022-11-23T13:34:51;7.44;81.05
47757;SHT35;22147;52.388;13.390;2022-11-23T13:37:19;7.32;81.34
47757;SHT35;22147;52.388;13.390;2022-11-23T13:42:19;7.17;82.00
47757;SHT35;22147;52.388;13.390;2022-11-23T13:44:47;7.14;82.14
47757;SHT35;22147;52.388;13.390;2022-11-23T13:47:19;7.09;81.99
47757;SHT35;22147;52.388;13.390;2022-11-23T13:49:51;7.10;82.08
47757;SHT35;22147;52.388;13.390;2022-11-23T13:57:47;7.06;82.45
47757;SHT35;22147;52.388;13.390;2022-11-23T14:01:10;7.01;82.60
47757;SHT35;22147;52.388;13.390;2022-11-23T14:03:54;7.04;82.87
47757;SHT35;22147;52.388;13.390;2022-11-23T14:06:53;7.04;82.47
47757;SHT35;22147;52.388;13.390;2022-11-23T14:15:00;7.09;81.95
47757;SHT35;22147;52.388;13.390;2022-11-23T14:21:40;6.64;83.08
47757;SHT35;22147;52.388;13.390;2022-11-23T14:25:02;6.53;83.38
47757;SHT35;22147;52.388;13.390;2022-11-23T14:41:26;6.00;85.02
47757;SHT35;22147;52.388;13.390;2022-11-23T14:44:00;5.89;85.07
47757;SHT35;22147;52.388;13.390;2022-11-23T14:46:31;5.86;85.22
47757;SHT35;22147;52.388;13.390;2022-11-23T14:49:11;5.70;85.34
47757;SHT35;22147;52.388;13.390;2022-11-23T14:51:43;5.69;85.41
47757;SHT35;22147;52.388;13.390;2022-11-23T14:54:16;5.52;85.83
47757;SHT35;22147;52.388;13.390;2022-11-23T14:56:51;5.56;86.10
47757;SHT35;22147;52.388;13.390;2022-11-23T14:59:35;5.49;85.73
47757;SHT35;22147;52.388;13.390;2022-11-23T15:05:32;5.20;86.41
47757;SHT35;22147;52.388;13.390;2022-11-23T15:08:33;5.08;86.62
47757;SHT35;22147;52.388;13.390;2022-11-23T15:11:16;4.95;86.92
47757;SHT35;22147;52.388;13.390;2022-11-23T15:13:52;4.83;87.13
47757;SHT35;22147;52.388;13.390;2022-11-23T15:16:24;4.77;87.45
47757;SHT35;22147;52.388;13.390;2022-11-23T15:18:55;4.69;87.73
47757;SHT35;22147;52.388;13.390;2022-11-23T15:21:28;4.65;87.78
47757;SHT35;22147;52.388;13.390;2022-11-23T15:23:58;4.62;88.10
47757;SHT35;22147;52.388;13.390;2022-11-23T15:26:32;4.49;88.09
47757;SHT35;22147;52.388;13.390;2022-11-23T15:29:37;4.31;88.20
47757;SHT35;22147;52.388;13.390;2022-11-23T15:32:30;4.21;88.47
47757;SHT35;22147;52.388;13.390;2022-11-23T15:35:13;4.12;88.75
47757;SHT35;22147;52.388;13.390;2022-11-23T15:37:49;4.05;88.97
47757;SHT35;22147;52.388;13.390;2022-11-23T15:40:18;3.95;89.10
47757;SHT35;22147;52.388;13.390;2022-11-23T15:42:50;3.90;89.40
47757;SHT35;22147;52.388;13.390;2022-11-23T15:48:27;3.91;89.65
47757;SHT35;22147;52.388;13.390;2022-11-23T15:51:03;3.87;89.77
47757;SHT35;22147;52.388;13.390;2022-11-23T15:53:50;3.84;89.87
47757;SHT35;22147;52.388;13.390;2022-11-23T15:59:48;3.71;90.15
47757;SHT35;22147;52.388;13.390;2022-11-23T16:02:27;3.66;90.26
47757;SHT35;22147;52.388;13.390;2022-11-23T16:05:21;3.73;90.44
47757;SHT35;22147;52.388;13.390;2022-11-23T16:08:00;3.73;90.63
47757;SHT35;22147;52.388;13.390;2022-11-23T16:10:34;3.76;90.70
47757;SHT35;22147;52.388;13.390;2022-11-23T16:13:05;3.73;90.79
47757;SHT35;22147;52.388;13.390;2022-11-23T16:15:40;3.78;90.80
47757;SHT35;22147;52.388;13.390;2022-11-23T16:18:17;3.78;90.79
47757;SHT35;22147;52.388;13.390;2022-11-23T16:21:02;3.80;90.77
47757;SHT35;22147;52.388;13.390;2022-11-23T16:23:55;3.76;90.74
47757;SHT35;22147;52.388;13.390;2022-11-23T16:26:33;3.70;90.84
47757;SHT35;22147;52.388;13.390;2022-11-23T16:29:03;3.74;90.88
47757;SHT35;22147;52.388;13.390;2022-11-23T16:31:38;3.73;90.82
47757;SHT35;22147;52.388;13.390;2022-11-23T16:34:18;3.63;90.82
47757;SHT35;22147;52.388;13.390;2022-11-23T16:36:45;3.55;90.90
47757;SHT35;22147;52.388;13.390;2022-11-23T16:39:15;3.52;91.15
47757;SHT35;22147;52.388;13.390;2022-11-23T16:41:45;3.47;91.19
47757;SHT35;22147;52.388;13.390;2022-11-23T16:44:15;3.44;91.28
47757;SHT35;22147;52.388;13.390;2022-11-23T16:46:46;3.39;91.28
47757;SHT35;22147;52.388;13.390;2022-11-23T16:49:22;3.39;91.52
47757;SHT35;22147;52.388;13.390;2022-11-23T16:51:51;3.46;91.60
47757;SHT35;22147;52.388;13.390;2022-11-23T16:54:26;3.39;91.46
47757;SHT35;22147;52.388;13.390;2022-11-23T16:56:56;3.33;91.47
47757;SHT35;22147;52.388;13.390;2022-11-23T16:59:25;3.23;91.42
47757;SHT35;22147;52.388;13.390;2022-11-23T17:01:57;3.13;91.45
47757;SHT35;22147;52.388;13.390;2022-11-23T17:04:27;3.12;91.61
47757;SHT35;22147;52.388;13.390;2022-11-23T17:06:56;3.19;91.79
47757;SHT35;22147;52.388;13.390;2022-11-23T17:09:26;3.13;91.70
47757;SHT35;22147;52.388;13.390;2022-11-23T17:11:56;3.09;91.80
47757;SHT35;22147;52.388;13.390;2022-11-23T17:14:37;3.05;91.86
47757;SHT35;22147;52.388;13.390;2022-11-23T17:17:21;3.09;92.15
47757;SHT35;22147;52.388;13.390;2022-11-23T17:19:51;3.09;92.12
47757;SHT35;22147;52.388;13.390;2022-11-23T17:22:22;3.05;92.18
47757;SHT35;22147;52.388;13.390;2022-11-23T17:24:52;3.05;92.22
47757;SHT35;22147;52.388;13.390;2022-11-23T17:27:24;3.08;92.28
47757;SHT35;22147;52.388;13.390;2022-11-23T17:30:02;3.18;92.27
47757;SHT35;22147;52.388;13.390;2022-11-23T17:32:33;3.20;92.07
47757;SHT35;22147;52.388;13.390;2022-11-23T17:35:04;3.12;91.99
47757;SHT35;22147;52.388;13.390;2022-11-23T17:37:36;3.15;92.11
47757;SHT35;22147;52.388;13.390;2022-11-23T17:40:16;3.11;92.13
47757;SHT35;22147;52.388;13.390;2022-11-23T17:42:47;3.04;92.24
47757;SHT35;22147;52.388;13.390;2022-11-23T17:45:17;3.01;92.49
47757;SHT35;22147;52.388;13.390;2022-11-23T17:47:48;2.98;92.56
47757;SHT35;22147;52.388;13.390;2022-11-23T17:50:18;3.04;92.78
47757;SHT35;22147;52.388;13.390;2022-11-23T17:52:49;3.04;92.75
47757;SHT35;22147;52.388;13.390;2022-11-23T17:55:19;2.95;92.81
47757;SHT35;22147;52.388;13.390;2022-11-23T17:57:49;2.95;92.96
47757;SHT35;22147;52.388;13.390;2022-11-23T18:00:22;2.91;93.02
47757;SHT35;22147;52.388;13.390;2022-11-23T18:02:52;2.88;93.15